sensor_id;sensor_type;location;lat;lon;timestamp;temperature;humidity
56046;DHT22;41913;51.030;3.706;2023-08-24T00:00:39;24.70;88.40
56046;DHT22;41913;51.030;3.706;2023-08-24T00:03:05;24.70;88.40
56046;DHT22;41913;51.030;3.706;2023-08-24T00:05:37;24.70;88.40
56046;DHT22;41913;51.030;3.706;2023-08-24T00:08:06;24.70;88.40
56046;DHT22;41913;51.030;3.706;2023-08-24T00:10:33;24.70;88.40
56046;DHT22;41913;51.030;3.706;2023-08-24T00:12:59;24.70;88.50
56046;DHT22;41913;51.030;3.706;2023-08-24T00:15:27;24.70;88.50
56046;DHT22;41913;51.030;3.706;2023-08-24T00:17:52;24.70;88.50
56046;DHT22;41913;51.030;3.706;2023-08-24T00:20:18;24.70;88.50
56046;DHT22;41913;51.030;3.706;2023-08-24T00:22:46;24.70;88.50
56046;DHT22;41913;51.030;3.706;2023-08-24T00:25:12;24.70;88.40
56046;DHT22;41913;51.030;3.706;2023-08-24T00:27:38;24.70;88.40
56046;DHT22;41913;51.030;3.706;2023-08-24T00:30:06;24.70;88.50
56046;DHT22;41913;51.030;3.706;2023-08-24T00:32:32;24.70;88.50
56046;DHT22;41913;51.030;3.706;2023-08-24T00:35:05;24.70;88.40
56046;DHT22;41913;51.030;3.706;2023-08-24T00:37:32;24.60;88.50
56046;DHT22;41913;51.030;3.706;2023-08-24T00:40:00;24.60;88.50
56046;DHT22;41913;51.030;3.706;2023-08-24T00:42:27;24.60;88.50
56046;DHT22;41913;51.030;3.706;2023-08-24T00:44:52;24.60;88.50
56046;DHT22;41913;51.030;3.706;2023-08-24T00:47:18;24.60;88.50
56046;DHT22;41913;51.030;3.706;2023-08-24T00:49:44;24.60;89.10
56046;DHT22;41913;51.030;3.706;2023-08-24T00:52:10;24.60;88.60
56046;DHT22;41913;51.030;3.706;2023-08-24T00:54:37;24.60;88.60
56046;DHT22;41913;51.030;3.706;2023-08-24T00:57:05;24.60;88.60
56046;DHT22;41913;51.030;3.706;2023-08-24T00:59:32;24.60;88.70
56046;DHT22;41913;51.030;3.706;2023-08-24T01:01:58;24.60;88.80
56046;DHT22;41913;51.030;3.706;2023-08-24T01:04:24;24.60;88.70
56046;DHT22;41913;51.030;3.706;2023-08-24T01:06:50;24.60;88.80
56046;DHT22;41913;51.030;3.706;2023-08-24T01:09:18;24.60;88.70
56046;DHT22;41913;51.030;3.706;2023-08-24T01:14:41;24.60;88.60
56046;DHT22;41913;51.030;3.706;2023-08-24T01:17:14;24.60;88.70
56046;DHT22;41913;51.030;3.706;2023-08-24T01:19:43;24.60;88.90
56046;DHT22;41913;51.030;3.706;2023-08-24T01:28:30;24.70;89.10
56046;DHT22;41913;51.030;3.706;2023-08-24T01:30:56;24.70;89.10
56046;DHT22;41913;51.030;3.706;2023-08-24T01:33:21;24.70;89.20
56046;DHT22;41913;51.030;3.706;2023-08-24T01:35:47;24.70;89.30
56046;DHT22;41913;51.030;3.706;2023-08-24T01:38:13;24.70;89.30
56046;DHT22;41913;51.030;3.706;2023-08-24T01:43:40;24.80;89.60
56046;DHT22;41913;51.030;3.706;2023-08-24T01:46:07;24.80;89.70
56046;DHT22;41913;51.030;3.706;2023-08-24T01:48:33;24.80;89.90
56046;DHT22;41913;51.030;3.706;2023-08-24T01:51:01;24.80;90.00
56046;DHT22;41913;51.030;3.706;2023-08-24T01:53:29;24.90;90.00
56046;DHT22;41913;51.030;3.706;2023-08-24T01:55:55;24.80;90.00
56046;DHT22;41913;51.030;3.706;2023-08-24T01:58:21;24.80;90.00
56046;DHT22;41913;51.030;3.706;2023-08-24T02:00:47;24.90;90.10
56046;DHT22;41913;51.030;3.706;2023-08-24T02:03:13;24.90;90.10
56046;DHT22;41913;51.030;3.706;2023-08-24T02:05:38;24.90;90.10
56046;DHT22;41913;51.030;3.706;2023-08-24T02:08:04;24.90;90.10
56046;DHT22;41913;51.030;3.706;2023-08-24T02:10:30;24.90;90.20
56046;DHT22;41913;51.030;3.706;2023-08-24T02:12:55;24.90;90.20
56046;DHT22;41913;51.030;3.706;2023-08-24T02:15:21;24.90;90.20
56046;DHT22;41913;51.030;3.706;2023-08-24T02:17:47;24.90;90.20
56046;DHT22;41913;51.030;3.706;2023-08-24T02:20:13;24.90;90.20
56046;DHT22;41913;51.030;3.706;2023-08-24T02:22:39;24.90;90.20
56046;DHT22;41913;51.030;3.706;2023-08-24T02:25:06;24.90;90.20
56046;DHT22;41913;51.030;3.706;2023-08-24T02:27:32;24.90;90.10
56046;DHT22;41913;51.030;3.706;2023-08-24T02:29:58;24.90;90.20
56046;DHT22;41913;51.030;3.706;2023-08-24T02:32:24;24.90;90.20
56046;DHT22;41913;51.030;3.706;2023-08-24T02:34:49;24.90;90.20
56046;DHT22;41913;51.030;3.706;2023-08-24T02:37:15;24.90;90.10
56046;DHT22;41913;51.030;3.706;2023-08-24T02:39:41;24.90;90.10
56046;DHT22;41913;51.030;3.706;2023-08-24T02:42:06;24.90;90.10
56046;DHT22;41913;51.030;3.706;2023-08-24T02:44:32;24.90;90.10
56046;DHT22;41913;51.030;3.706;2023-08-24T02:46:58;24.90;90.10
56046;DHT22;41913;51.030;3.706;2023-08-24T02:49:24;24.90;90.10
56046;DHT22;41913;51.030;3.706;2023-08-24T02:51:50;24.90;90.10
56046;DHT22;41913;51.030;3.706;2023-08-24T02:54:15;24.90;90.10
56046;DHT22;41913;51.030;3.706;2023-08-24T02:56:41;24.90;90.10
56046;DHT22;41913;51.030;3.706;2023-08-24T02:59:07;24.90;90.10
56046;DHT22;41913;51.030;3.706;2023-08-24T03:01:32;24.90;90.00
56046;DHT22;41913;51.030;3.706;2023-08-24T03:03:58;24.90;90.00
56046;DHT22;41913;51.030;3.706;2023-08-24T03:06:24;24.90;90.00
56046;DHT22;41913;51.030;3.706;2023-08-24T03:08:50;24.90;90.00
56046;DHT22;41913;51.030;3.706;2023-08-24T03:11:16;24.90;90.00
56046;DHT22;41913;51.030;3.706;2023-08-24T03:13:41;24.90;90.00
56046;DHT22;41913;51.030;3.706;2023-08-24T03:16:08;24.90;90.00
56046;DHT22;41913;51.030;3.706;2023-08-24T03:18:34;24.90;89.90
56046;DHT22;41913;51.030;3.706;2023-08-24T03:21:00;24.90;89.90
56046;DHT22;41913;51.030;3.706;2023-08-24T03:23:26;24.90;90.00
56046;DHT22;41913;51.030;3.706;2023-08-24T03:25:53;24.90;90.00
56046;DHT22;41913;51.030;3.706;2023-08-24T03:28:19;24.90;90.00
56046;DHT22;41913;51.030;3.706;2023-08-24T03:30:50;24.90;90.00
56046;DHT22;41913;51.030;3.706;2023-08-24T03:33:16;24.90;90.00
56046;DHT22;41913;51.030;3.706;2023-08-24T03:35:41;24.90;90.00
56046;DHT22;41913;51.030;3.706;2023-08-24T03:38:08;24.90;90.00
56046;DHT22;41913;51.030;3.706;2023-08-24T03:40:34;24.90;90.00
56046;DHT22;41913;51.030;3.706;2023-08-24T03:43:01;24.90;90.00
56046;DHT22;41913;51.030;3.706;2023-08-24T03:45:27;24.90;90.00
56046;DHT22;41913;51.030;3.706;2023-08-24T03:47:54;24.90;90.10
56046;DHT22;41913;51.030;3.706;2023-08-24T03:50:19;24.90;90.10
56046;DHT22;41913;51.030;3.706;2023-08-24T03:52:45;24.90;90.10
56046;DHT22;41913;51.030;3.706;2023-08-24T03:55:11;24.90;90.10
56046;DHT22;41913;51.030;3.706;2023-08-24T03:57:37;24.90;90.10
56046;DHT22;41913;51.030;3.706;2023-08-24T04:00:04;24.90;90.10
56046;DHT22;41913;51.030;3.706;2023-08-24T04:02:35;24.90;90.10
56046;DHT22;41913;51.030;3.706;2023-08-24T04:05:02;24.90;90.00
56046;DHT22;41913;51.030;3.706;2023-08-24T04:07:27;24.90;90.00
56046;DHT22;41913;51.030;3.706;2023-08-24T04:09:53;24.90;90.00
56046;DHT22;41913;51.030;3.706;2023-08-24T04:12:19;24.90;90.00
56046;DHT22;41913;51.030;3.706;2023-08-24T04:14:44;24.90;90.00
56046;DHT22;41913;51.030;3.706;2023-08-24T04:17:10;24.90;90.00
56046;DHT22;41913;51.030;3.706;2023-08-24T04:19:38;24.90;90.00
56046;DHT22;41913;51.030;3.706;2023-08-24T04:22:04;24.90;90.00
56046;DHT22;41913;51.030;3.706;2023-08-24T04:24:29;24.90;90.00
56046;DHT22;41913;51.030;3.706;2023-08-24T04:26:55;24.90;90.00
56046;DHT22;41913;51.030;3.706;2023-08-24T04:29:21;24.90;90.00
56046;DHT22;41913;51.030;3.706;2023-08-24T04:31:47;24.90;90.00
56046;DHT22;41913;51.030;3.706;2023-08-24T04:34:13;24.90;90.00
56046;DHT22;41913;51.030;3.706;2023-08-24T04:36:39;24.80;89.90
56046;DHT22;41913;51.030;3.706;2023-08-24T04:39:04;24.90;90.00
56046;DHT22;41913;51.030;3.706;2023-08-24T04:41:30;24.90;90.00
56046;DHT22;41913;51.030;3.706;2023-08-24T04:43:57;24.90;90.00
56046;DHT22;41913;51.030;3.706;2023-08-24T04:46:23;24.90;90.00
56046;DHT22;41913;51.030;3.706;2023-08-24T04:48:49;24.80;90.00
56046;DHT22;41913;51.030;3.706;2023-08-24T04:51:14;24.90;90.00
56046;DHT22;41913;51.030;3.706;2023-08-24T04:53:40;24.90;90.00
56046;DHT22;41913;51.030;3.706;2023-08-24T04:56:06;24.90;90.00
56046;DHT22;41913;51.030;3.706;2023-08-24T04:58:33;24.80;89.80
56046;DHT22;41913;51.030;3.706;2023-08-24T05:00:59;24.90;89.90
56046;DHT22;41913;51.030;3.706;2023-08-24T05:03:25;24.90;89.80
56046;DHT22;41913;51.030;3.706;2023-08-24T05:05:51;24.80;89.60
56046;DHT22;41913;51.030;3.706;2023-08-24T05:08:17;24.90;89.70
56046;DHT22;41913;51.030;3.706;2023-08-24T05:10:43;24.80;89.60
56046;DHT22;41913;51.030;3.706;2023-08-24T05:13:09;24.90;89.60
56046;DHT22;41913;51.030;3.706;2023-08-24T05:15:35;24.90;89.60
56046;DHT22;41913;51.030;3.706;2023-08-24T05:18:01;24.90;89.60
56046;DHT22;41913;51.030;3.706;2023-08-24T05:20:26;24.80;89.60
56046;DHT22;41913;51.030;3.706;2023-08-24T05:22:52;24.80;89.50
56046;DHT22;41913;51.030;3.706;2023-08-24T05:25:21;24.80;89.60
56046;DHT22;41913;51.030;3.706;2023-08-24T05:27:47;24.80;89.50
56046;DHT22;41913;51.030;3.706;2023-08-24T05:30:14;24.80;89.50
56046;DHT22;41913;51.030;3.706;2023-08-24T05:32:39;24.80;89.50
56046;DHT22;41913;51.030;3.706;2023-08-24T05:35:06;24.80;89.50
56046;DHT22;41913;51.030;3.706;2023-08-24T05:37:32;24.80;89.60
56046;DHT22;41913;51.030;3.706;2023-08-24T05:39:59;24.80;89.50
56046;DHT22;41913;51.030;3.706;2023-08-24T05:42:25;24.80;89.50
56046;DHT22;41913;51.030;3.706;2023-08-24T05:44:51;24.80;89.50
56046;DHT22;41913;51.030;3.706;2023-08-24T05:47:17;24.80;89.50
56046;DHT22;41913;51.030;3.706;2023-08-24T05:49:42;24.80;89.50
56046;DHT22;41913;51.030;3.706;2023-08-24T05:52:08;24.80;89.60
56046;DHT22;41913;51.030;3.706;2023-08-24T05:54:36;24.80;89.60
56046;DHT22;41913;51.030;3.706;2023-08-24T05:57:02;24.80;89.60
56046;DHT22;41913;51.030;3.706;2023-08-24T05:59:29;24.80;89.60
56046;DHT22;41913;51.030;3.706;2023-08-24T06:01:55;24.80;89.60
56046;DHT22;41913;51.030;3.706;2023-08-24T06:04:21;24.80;89.70
56046;DHT22;41913;51.030;3.706;2023-08-24T06:06:47;24.80;89.60
56046;DHT22;41913;51.030;3.706;2023-08-24T06:09:12;24.90;89.60
56046;DHT22;41913;51.030;3.706;2023-08-24T06:11:38;24.90;89.30
56046;DHT22;41913;51.030;3.706;2023-08-24T06:14:06;25.00;89.10
56046;DHT22;41913;51.030;3.706;2023-08-24T06:16:32;25.10;89.10
56046;DHT22;41913;51.030;3.706;2023-08-24T06:18:57;25.10;88.60
56046;DHT22;41913;51.030;3.706;2023-08-24T06:21:23;25.20;89.00
56046;DHT22;41913;51.030;3.706;2023-08-24T06:23:49;25.20;90.00
56046;DHT22;41913;51.030;3.706;2023-08-24T06:26:15;25.20;90.40
56046;DHT22;41913;51.030;3.706;2023-08-24T06:28:40;25.20;90.60
56046;DHT22;41913;51.030;3.706;2023-08-24T06:31:08;25.20;90.70
56046;DHT22;41913;51.030;3.706;2023-08-24T06:33:34;25.20;90.80
56046;DHT22;41913;51.030;3.706;2023-08-24T06:36:02;25.20;90.80
56046;DHT22;41913;51.030;3.706;2023-08-24T06:38:28;25.20;90.80
56046;DHT22;41913;51.030;3.706;2023-08-24T06:40:54;25.20;90.80
56046;DHT22;41913;51.030;3.706;2023-08-24T06:43:20;25.10;90.80
56046;DHT22;41913;51.030;3.706;2023-08-24T06:45:46;25.10;90.80
56046;DHT22;41913;51.030;3.706;2023-08-24T06:48:12;25.10;90.80
56046;DHT22;41913;51.030;3.706;2023-08-24T06:50:38;25.10;90.90
56046;DHT22;41913;51.030;3.706;2023-08-24T06:53:04;25.10;90.80
56046;DHT22;41913;51.030;3.706;2023-08-24T06:55:30;25.10;90.90
56046;DHT22;41913;51.030;3.706;2023-08-24T06:57:56;25.10;90.80
56046;DHT22;41913;51.030;3.706;2023-08-24T07:00:22;25.10;90.70
56046;DHT22;41913;51.030;3.706;2023-08-24T07:02:51;25.10;90.60
56046;DHT22;41913;51.030;3.706;2023-08-24T07:05:17;25.10;90.60
56046;DHT22;41913;51.030;3.706;2023-08-24T07:07:46;25.10;90.50
56046;DHT22;41913;51.030;3.706;2023-08-24T07:10:13;25.00;90.40
56046;DHT22;41913;51.030;3.706;2023-08-24T07:12:39;25.00;90.40
56046;DHT22;41913;51.030;3.706;2023-08-24T07:15:11;25.00;90.40
56046;DHT22;41913;51.030;3.706;2023-08-24T07:17:38;25.10;90.40
56046;DHT22;41913;51.030;3.706;2023-08-24T07:20:05;25.10;90.50
56046;DHT22;41913;51.030;3.706;2023-08-24T07:22:32;25.00;90.50
56046;DHT22;41913;51.030;3.706;2023-08-24T07:24:58;25.10;90.50
56046;DHT22;41913;51.030;3.706;2023-08-24T07:27:23;25.00;90.40
56046;DHT22;41913;51.030;3.706;2023-08-24T07:29:49;25.10;90.60
56046;DHT22;41913;51.030;3.706;2023-08-24T07:32:16;25.10;90.60
56046;DHT22;41913;51.030;3.706;2023-08-24T07:34:41;25.10;90.60
56046;DHT22;41913;51.030;3.706;2023-08-24T07:37:07;25.10;90.60
56046;DHT22;41913;51.030;3.706;2023-08-24T07:39:33;25.10;90.50
56046;DHT22;41913;51.030;3.706;2023-08-24T07:41:59;25.10;90.60
56046;DHT22;41913;51.030;3.706;2023-08-24T07:44:25;25.20;90.60
56046;DHT22;41913;51.030;3.706;2023-08-24T07:46:51;25.10;90.60
56046;DHT22;41913;51.030;3.706;2023-08-24T07:49:17;25.10;90.60
56046;DHT22;41913;51.030;3.706;2023-08-24T07:51:43;25.10;90.70
56046;DHT22;41913;51.030;3.706;2023-08-24T07:54:09;25.20;90.80
56046;DHT22;41913;51.030;3.706;2023-08-24T07:56:36;25.20;90.80
56046;DHT22;41913;51.030;3.706;2023-08-24T07:59:01;25.20;90.80
56046;DHT22;41913;51.030;3.706;2023-08-24T08:01:27;25.20;90.90
56046;DHT22;41913;51.030;3.706;2023-08-24T08:03:56;25.20;90.90
56046;DHT22;41913;51.030;3.706;2023-08-24T08:06:23;25.20;90.90
56046;DHT22;41913;51.030;3.706;2023-08-24T08:08:50;25.20;90.90
56046;DHT22;41913;51.030;3.706;2023-08-24T08:11:17;25.20;90.90
56046;DHT22;41913;51.030;3.706;2023-08-24T08:13:43;25.20;90.90
56046;DHT22;41913;51.030;3.706;2023-08-24T08:16:10;25.20;91.00
56046;DHT22;41913;51.030;3.706;2023-08-24T08:18:36;25.20;91.00
56046;DHT22;41913;51.030;3.706;2023-08-24T08:21:15;25.20;91.00
56046;DHT22;41913;51.030;3.706;2023-08-24T08:23:43;25.20;91.00
56046;DHT22;41913;51.030;3.706;2023-08-24T08:26:10;25.20;91.00
56046;DHT22;41913;51.030;3.706;2023-08-24T08:28:36;25.20;91.00
56046;DHT22;41913;51.030;3.706;2023-08-24T08:31:02;25.20;91.00
56046;DHT22;41913;51.030;3.706;2023-08-24T08:33:29;25.20;91.00
56046;DHT22;41913;51.030;3.706;2023-08-24T08:35:55;25.20;91.00
56046;DHT22;41913;51.030;3.706;2023-08-24T08:38:22;25.20;91.00
56046;DHT22;41913;51.030;3.706;2023-08-24T08:40:53;25.30;91.00
56046;DHT22;41913;51.030;3.706;2023-08-24T08:43:22;25.30;91.00
56046;DHT22;41913;51.030;3.706;2023-08-24T08:45:51;25.30;91.10
56046;DHT22;41913;51.030;3.706;2023-08-24T08:48:20;25.30;91.20
56046;DHT22;41913;51.030;3.706;2023-08-24T08:50:48;25.30;91.30
56046;DHT22;41913;51.030;3.706;2023-08-24T08:53:14;25.30;91.40
56046;DHT22;41913;51.030;3.706;2023-08-24T08:55:41;25.30;91.50
56046;DHT22;41913;51.030;3.706;2023-08-24T08:58:07;25.30;91.50
56046;DHT22;41913;51.030;3.706;2023-08-24T09:00:35;25.30;91.60
56046;DHT22;41913;51.030;3.706;2023-08-24T09:03:01;25.40;91.50
56046;DHT22;41913;51.030;3.706;2023-08-24T09:05:28;25.40;91.50
56046;DHT22;41913;51.030;3.706;2023-08-24T09:07:55;25.40;91.50
56046;DHT22;41913;51.030;3.706;2023-08-24T09:10:22;25.40;91.50
56046;DHT22;41913;51.030;3.706;2023-08-24T09:12:48;25.50;91.60
56046;DHT22;41913;51.030;3.706;2023-08-24T09:15:14;25.40;91.60
56046;DHT22;41913;51.030;3.706;2023-08-24T09:17:43;25.40;91.60
56046;DHT22;41913;51.030;3.706;2023-08-24T09:20:09;25.40;91.50
56046;DHT22;41913;51.030;3.706;2023-08-24T09:22:36;25.40;91.50
56046;DHT22;41913;51.030;3.706;2023-08-24T09:25:03;25.40;91.60
56046;DHT22;41913;51.030;3.706;2023-08-24T09:27:32;25.40;91.60
56046;DHT22;41913;51.030;3.706;2023-08-24T09:29:57;25.40;91.50
56046;DHT22;41913;51.030;3.706;2023-08-24T09:32:31;25.30;91.60
56046;DHT22;41913;51.030;3.706;2023-08-24T09:35:04;25.40;91.70
56046;DHT22;41913;51.030;3.706;2023-08-24T09:37:34;25.30;91.60
56046;DHT22;41913;51.030;3.706;2023-08-24T09:40:07;25.30;91.70
56046;DHT22;41913;51.030;3.706;2023-08-24T09:42:41;25.30;91.70
56046;DHT22;41913;51.030;3.706;2023-08-24T09:45:16;25.30;91.70
56046;DHT22;41913;51.030;3.706;2023-08-24T09:48:00;25.30;91.80
56046;DHT22;41913;51.030;3.706;2023-08-24T09:50:26;25.40;91.90
56046;DHT22;41913;51.030;3.706;2023-08-24T09:52:53;25.40;91.90
56046;DHT22;41913;51.030;3.706;2023-08-24T09:55:24;25.40;91.90
56046;DHT22;41913;51.030;3.706;2023-08-24T09:57:53;25.50;92.00
56046;DHT22;41913;51.030;3.706;2023-08-24T10:00:20;25.50;92.00
56046;DHT22;41913;51.030;3.706;2023-08-24T10:02:51;25.60;92.00
56046;DHT22;41913;51.030;3.706;2023-08-24T10:05:20;25.60;92.00
56046;DHT22;41913;51.030;3.706;2023-08-24T10:07:52;25.70;92.00
56046;DHT22;41913;51.030;3.706;2023-08-24T10:10:20;25.70;91.90
56046;DHT22;41913;51.030;3.706;2023-08-24T10:12:57;25.80;91.90
56046;DHT22;41913;51.030;3.706;2023-08-24T10:15:24;25.80;91.90
56046;DHT22;41913;51.030;3.706;2023-08-24T10:17:52;25.90;91.70
56046;DHT22;41913;51.030;3.706;2023-08-24T10:20:22;26.00;91.60
56046;DHT22;41913;51.030;3.706;2023-08-24T10:22:48;26.00;91.60
56046;DHT22;41913;51.030;3.706;2023-08-24T10:25:16;26.10;91.50
56046;DHT22;41913;51.030;3.706;2023-08-24T10:27:45;26.10;91.50
56046;DHT22;41913;51.030;3.706;2023-08-24T10:30:13;26.20;91.50
56046;DHT22;41913;51.030;3.706;2023-08-24T10:32:40;26.20;91.50
56046;DHT22;41913;51.030;3.706;2023-08-24T10:35:07;26.30;91.40
56046;DHT22;41913;51.030;3.706;2023-08-24T10:37:32;26.30;91.20
56046;DHT22;41913;51.030;3.706;2023-08-24T10:40:01;26.40;91.20
56046;DHT22;41913;51.030;3.706;2023-08-24T10:42:43;26.40;91.10
56046;DHT22;41913;51.030;3.706;2023-08-24T10:45:10;26.50;91.20
56046;DHT22;41913;51.030;3.706;2023-08-24T10:47:44;26.50;91.10
56046;DHT22;41913;51.030;3.706;2023-08-24T10:50:11;26.60;91.10
56046;DHT22;41913;51.030;3.706;2023-08-24T10:52:37;26.60;91.10
56046;DHT22;41913;51.030;3.706;2023-08-24T10:55:20;26.60;91.10
56046;DHT22;41913;51.030;3.706;2023-08-24T10:57:55;26.70;91.10
56046;DHT22;41913;51.030;3.706;2023-08-24T11:00:25;26.70;91.10
56046;DHT22;41913;51.030;3.706;2023-08-24T11:02:52;26.70;91.10
56046;DHT22;41913;51.030;3.706;2023-08-24T11:08:00;26.80;91.10
56046;DHT22;41913;51.030;3.706;2023-08-24T11:10:46;26.80;91.00
56046;DHT22;41913;51.030;3.706;2023-08-24T11:13:15;26.80;91.00
56046;DHT22;41913;51.030;3.706;2023-08-24T11:20:52;27.00;90.70
56046;DHT22;41913;51.030;3.706;2023-08-24T11:23:19;27.10;90.70
56046;DHT22;41913;51.030;3.706;2023-08-24T11:25:46;27.30;90.90
56046;DHT22;41913;51.030;3.706;2023-08-24T11:28:20;27.40;90.70
56046;DHT22;41913;51.030;3.706;2023-08-24T11:30:47;27.40;90.70
56046;DHT22;41913;51.030;3.706;2023-08-24T11:33:13;27.40;90.70
56046;DHT22;41913;51.030;3.706;2023-08-24T11:35:45;27.40;90.80
56046;DHT22;41913;51.030;3.706;2023-08-24T11:38:13;27.40;90.70
56046;DHT22;41913;51.030;3.706;2023-08-24T11:40:39;27.40;90.80
56046;DHT22;41913;51.030;3.706;2023-08-24T11:43:05;27.30;90.80
56046;DHT22;41913;51.030;3.706;2023-08-24T11:45:32;27.20;90.70
56046;DHT22;41913;51.030;3.706;2023-08-24T11:48:00;27.20;90.80
56046;DHT22;41913;51.030;3.706;2023-08-24T11:50:30;27.10;90.70
56046;DHT22;41913;51.030;3.706;2023-08-24T11:52:56;27.10;90.80
56046;DHT22;41913;51.030;3.706;2023-08-24T11:55:23;27.10;90.90
56046;DHT22;41913;51.030;3.706;2023-08-24T11:57:49;27.00;90.90
56046;DHT22;41913;51.030;3.706;2023-08-24T12:00:18;27.00;90.90
56046;DHT22;41913;51.030;3.706;2023-08-24T12:02:45;26.90;91.00
56046;DHT22;41913;51.030;3.706;2023-08-24T12:05:24;26.90;90.90
56046;DHT22;41913;51.030;3.706;2023-08-24T12:07:52;26.80;91.10
56046;DHT22;41913;51.030;3.706;2023-08-24T12:10:18;26.80;91.00
56046;DHT22;41913;51.030;3.706;2023-08-24T12:12:43;26.70;91.10
56046;DHT22;41913;51.030;3.706;2023-08-24T12:15:19;26.70;91.30
56046;DHT22;41913;51.030;3.706;2023-08-24T12:17:47;26.70;91.00
56046;DHT22;41913;51.030;3.706;2023-08-24T12:20:21;26.60;91.10
56046;DHT22;41913;51.030;3.706;2023-08-24T12:22:53;26.60;91.20
56046;DHT22;41913;51.030;3.706;2023-08-24T12:25:23;26.60;91.20
56046;DHT22;41913;51.030;3.706;2023-08-24T12:28:08;26.60;91.10
56046;DHT22;41913;51.030;3.706;2023-08-24T12:30:44;26.60;91.10
56046;DHT22;41913;51.030;3.706;2023-08-24T12:33:15;26.50;91.10
56046;DHT22;41913;51.030;3.706;2023-08-24T12:35:45;26.50;90.90
56046;DHT22;41913;51.030;3.706;2023-08-24T12:38:11;26.50;90.90
56046;DHT22;41913;51.030;3.706;2023-08-24T12:40:37;26.50;90.90
56046;DHT22;41913;51.030;3.706;2023-08-24T12:43:03;26.50;91.00
56046;DHT22;41913;51.030;3.706;2023-08-24T12:45:29;26.50;91.00
56046;DHT22;41913;51.030;3.706;2023-08-24T12:47:55;26.50;90.90
56046;DHT22;41913;51.030;3.706;2023-08-24T12:50:21;26.50;91.10
56046;DHT22;41913;51.030;3.706;2023-08-24T12:52:47;26.50;91.00
56046;DHT22;41913;51.030;3.706;2023-08-24T12:55:14;26.50;91.10
56046;DHT22;41913;51.030;3.706;2023-08-24T12:57:39;26.50;91.10
56046;DHT22;41913;51.030;3.706;2023-08-24T13:00:06;26.40;91.00
56046;DHT22;41913;51.030;3.706;2023-08-24T13:02:33;26.40;91.00
56046;DHT22;41913;51.030;3.706;2023-08-24T13:04:59;26.40;91.00
56046;DHT22;41913;51.030;3.706;2023-08-24T13:07:29;26.40;91.00
56046;DHT22;41913;51.030;3.706;2023-08-24T13:09:54;26.40;91.00
56046;DHT22;41913;51.030;3.706;2023-08-24T13:12:20;26.40;91.00
56046;DHT22;41913;51.030;3.706;2023-08-24T13:14:47;26.40;91.00
56046;DHT22;41913;51.030;3.706;2023-08-24T13:17:12;26.40;90.90
56046;DHT22;41913;51.030;3.706;2023-08-24T13:19:38;26.40;90.90
56046;DHT22;41913;51.030;3.706;2023-08-24T13:22:04;26.40;91.10
56046;DHT22;41913;51.030;3.706;2023-08-24T13:24:29;26.40;91.10
56046;DHT22;41913;51.030;3.706;2023-08-24T13:26:55;26.40;91.20
56046;DHT22;41913;51.030;3.706;2023-08-24T13:29:21;26.40;91.00
56046;DHT22;41913;51.030;3.706;2023-08-24T13:31:47;26.40;91.10
56046;DHT22;41913;51.030;3.706;2023-08-24T13:34:13;26.40;91.30
56046;DHT22;41913;51.030;3.706;2023-08-24T13:36:39;26.40;91.30
56046;DHT22;41913;51.030;3.706;2023-08-24T13:39:04;26.40;91.30
56046;DHT22;41913;51.030;3.706;2023-08-24T13:41:30;26.40;91.20
56046;DHT22;41913;51.030;3.706;2023-08-24T13:43:56;26.40;91.20
56046;DHT22;41913;51.030;3.706;2023-08-24T13:46:23;26.40;91.20
56046;DHT22;41913;51.030;3.706;2023-08-24T13:48:48;26.40;91.20
56046;DHT22;41913;51.030;3.706;2023-08-24T13:51:14;26.40;91.10
56046;DHT22;41913;51.030;3.706;2023-08-24T13:53:40;26.40;91.20
56046;DHT22;41913;51.030;3.706;2023-08-24T13:56:05;26.40;91.20
56046;DHT22;41913;51.030;3.706;2023-08-24T13:58:32;26.40;91.30
56046;DHT22;41913;51.030;3.706;2023-08-24T14:00:58;26.40;91.10
56046;DHT22;41913;51.030;3.706;2023-08-24T14:03:24;26.40;91.10
56046;DHT22;41913;51.030;3.706;2023-08-24T14:05:55;26.40;91.00
56046;DHT22;41913;51.030;3.706;2023-08-24T14:08:21;26.40;91.20
56046;DHT22;41913;51.030;3.706;2023-08-24T14:10:47;26.40;90.80
56046;DHT22;41913;51.030;3.706;2023-08-24T14:13:14;26.40;91.00
56046;DHT22;41913;51.030;3.706;2023-08-24T14:15:41;26.40;91.00
56046;DHT22;41913;51.030;3.706;2023-08-24T14:18:06;26.30;91.10
56046;DHT22;41913;51.030;3.706;2023-08-24T14:20:33;26.30;91.20
56046;DHT22;41913;51.030;3.706;2023-08-24T14:22:59;26.30;91.10
56046;DHT22;41913;51.030;3.706;2023-08-24T14:25:25;26.30;91.00
56046;DHT22;41913;51.030;3.706;2023-08-24T14:27:50;26.30;91.00
56046;DHT22;41913;51.030;3.706;2023-08-24T14:30:16;26.30;91.00
56046;DHT22;41913;51.030;3.706;2023-08-24T14:32:42;26.30;90.80
56046;DHT22;41913;51.030;3.706;2023-08-24T14:35:08;26.30;90.90
56046;DHT22;41913;51.030;3.706;2023-08-24T14:37:34;26.30;90.90
56046;DHT22;41913;51.030;3.706;2023-08-24T14:39:59;26.30;90.90
56046;DHT22;41913;51.030;3.706;2023-08-24T14:42:26;26.30;91.10
56046;DHT22;41913;51.030;3.706;2023-08-24T14:44:53;26.30;91.20
56046;DHT22;41913;51.030;3.706;2023-08-24T14:47:20;26.30;91.20
56046;DHT22;41913;51.030;3.706;2023-08-24T14:49:46;26.20;91.10
56046;DHT22;41913;51.030;3.706;2023-08-24T14:52:14;26.30;91.50
56046;DHT22;41913;51.030;3.706;2023-08-24T14:54:40;26.20;91.20
56046;DHT22;41913;51.030;3.706;2023-08-24T14:57:05;26.30;91.40
56046;DHT22;41913;51.030;3.706;2023-08-24T14:59:33;26.20;91.40
56046;DHT22;41913;51.030;3.706;2023-08-24T15:02:01;26.20;91.70
56046;DHT22;41913;51.030;3.706;2023-08-24T15:04:27;26.30;91.20
56046;DHT22;41913;51.030;3.706;2023-08-24T15:06:53;26.30;91.10
56046;DHT22;41913;51.030;3.706;2023-08-24T15:09:19;26.30;91.30
56046;DHT22;41913;51.030;3.706;2023-08-24T15:11:45;26.30;91.40
56046;DHT22;41913;51.030;3.706;2023-08-24T15:14:11;26.30;91.50
56046;DHT22;41913;51.030;3.706;2023-08-24T15:16:37;26.30;91.40
56046;DHT22;41913;51.030;3.706;2023-08-24T15:19:02;26.30;91.50
56046;DHT22;41913;51.030;3.706;2023-08-24T15:21:28;26.20;91.50
56046;DHT22;41913;51.030;3.706;2023-08-24T15:23:54;26.20;91.60
56046;DHT22;41913;51.030;3.706;2023-08-24T15:26:20;26.20;91.50
56046;DHT22;41913;51.030;3.706;2023-08-24T15:31:33;26.20;91.40
56046;DHT22;41913;51.030;3.706;2023-08-24T15:33:58;26.20;91.20
56046;DHT22;41913;51.030;3.706;2023-08-24T15:36:24;26.20;91.40
56046;DHT22;41913;51.030;3.706;2023-08-24T15:38:50;26.20;91.40
56046;DHT22;41913;51.030;3.706;2023-08-24T15:41:15;26.20;91.40
56046;DHT22;41913;51.030;3.706;2023-08-24T15:43:41;26.20;91.30
56046;DHT22;41913;51.030;3.706;2023-08-24T15:46:08;26.10;91.10
56046;DHT22;41913;51.030;3.706;2023-08-24T15:48:34;26.20;91.00
56046;DHT22;41913;51.030;3.706;2023-08-24T15:50:59;26.20;91.20